Loch Melfort — 3FRR3 — position and weather

sailwx.info

Track history (hours):
 
Tides and Currents Weather Stations Pressure Air Temp Water Temp Dewpoint Dewpoint Depression Visibility Wind Speed Wind Dir Waves Ship Positions

Loch Melfort

Last reported at 2017-Sep-21 17:45 UTC. Time now 2017-Sep-24 17:52 UTC.
Position N 34°11' W 007°56'.

Length 177 m; draft 7.8 m.

Type: Cargo ship. MMSI: 372924000.

Date/timePositionNaut miles runAvg speedWind from/ knotsBaromVisibWave heightAir tempDewpointWater temp
2017-Sep-21 17:45N 34°11' W 007°56'313.8
2017-Sep-21 17:30N 34°13' W 007°53'15312.0
2017-Sep-21 04:49N 35°58' W 005°37'411.7
2017-Sep-21 04:30N 35°59' W 005°33'611.5
2017-Sep-21 04:00N 36°01' W 005°26'510.8
2017-Sep-21 03:30N 36°05' W 005°23'3 6.0
2017-Sep-21 03:00N 36°08' W 005°22'0 0.1
2017-Sep-21 02:29N 36°08' W 005°22'0 0.1
2017-Sep-21 01:56N 36°08' W 005°22'0 0.0
2017-Sep-21 01:26N 36°08' W 005°22'0 0.2
2017-Sep-21 00:59N 36°08' W 005°22'0 0.1
2017-Sep-21 00:29N 36°08' W 005°22'0 0.1
2017-Sep-20 23:59N 36°08' W 005°22'0 0.2
2017-Sep-20 23:26N 36°08' W 005°22'0 0.2
2017-Sep-20 22:59N 36°08' W 005°22'0 0.1
2017-Sep-20 22:26N 36°08' W 005°22'0 0.2
2017-Sep-20 21:59N 36°08' W 005°22'0 0.4
2017-Sep-20 21:29N 36°08' W 005°22'0 0.1
2017-Sep-20 20:56N 36°08' W 005°22'0 0.0
2017-Sep-20 20:20N 36°08' W 005°22'0 0.0
2017-Sep-20 19:56N 36°08' W 005°22'0 0.0
2017-Sep-20 19:23N 36°08' W 005°22'0 0.0
2017-Sep-20 18:56N 36°08' W 005°22'0 0.1
2017-Sep-20 18:30N 36°08' W 005°22'3 4.1
2017-Sep-20 17:52N 36°06' W 005°22'3 9.4
2017-Sep-20 17:30N 36°05' W 005°18'4 8.1
2017-Sep-20 17:00N 36°04' W 005°13'2 2.1
2017-Sep-20 16:14N 36°05' W 005°11'0 0.7
2017-Sep-20 15:35N 36°05' W 005°11'0 0.6
2017-Sep-20 15:30N 36°05' W 005°11'0 0.6
2017-Sep-20 14:57N 36°06' W 005°11'1 0.6
2017-Sep-20 14:01N 36°06' W 005°12'0 0.6
2017-Sep-20 13:30N 36°06' W 005°12'0 0.2
2017-Sep-20 13:00N 36°07' W 005°12'0 0.4
2017-Sep-20 12:30N 36°07' W 005°11'0 0.6
2017-Sep-20 12:00N 36°06' W 005°11'  
2017-Sep-17 13:14N 36°60' E 012°34'311.3
2017-Sep-17 13:00N 36°59' E 012°37'1811.6
2017-Sep-17 11:27N 36°52' E 012°58'3612.9
2017-Sep-17 08:42N 36°41' E 013°40'413.0
2017-Sep-17 08:25N 36°39' E 013°44'613.0
2017-Sep-17 07:58N 36°38' E 013°51'613.2
2017-Sep-17 07:30N 36°36' E 013°59'613.1
2017-Sep-17 07:00N 36°34' E 014°06'713.1
2017-Sep-17 06:30N 36°31' E 014°14'713.1
2017-Sep-17 06:00N 36°29' E 014°22'613.1
2017-Sep-17 05:30N 36°27' E 014°29'713.1
2017-Sep-17 05:00N 36°25' E 014°37'613.0
2017-Sep-17 04:30N 36°25' E 014°45'613.1
2017-Sep-17 04:00N 36°25' E 014°53'713.2
2017-Sep-17 03:30N 36°25' E 015°02'612.8
2017-Sep-17 03:00N 36°25' E 015°10'713.0
2017-Sep-17 02:30N 36°25' E 015°18'713.7
2017-Sep-17 02:00N 36°24' E 015°26'713.8
2017-Sep-17 01:30N 36°25' E 015°35'713.7
2017-Sep-17 01:00N 36°25' E 015°43'714.1
2017-Sep-17 00:31N 36°24' E 015°52'713.7
2017-Sep-17 00:01N 36°24' E 016°00'713.5
2017-Sep-16 23:30N 36°24' E 016°09'713.5
2017-Sep-16 23:01N 36°24' E 016°17'713.5
2017-Sep-16 22:30N 36°24' E 016°26'713.5
2017-Sep-16 22:00N 36°24' E 016°34'713.3
2017-Sep-16 21:31N 36°24' E 016°42'813.3
2017-Sep-16 20:55N 36°23' E 016°52'513.3
2017-Sep-16 20:31N 36°24' E 016°59'713.5
2017-Sep-16 20:00N 36°23' E 017°07'713.7
2017-Sep-16 19:31N 36°23' E 017°16'713.7
2017-Sep-16 19:00N 36°23' E 017°24'713.7
2017-Sep-16 18:31N 36°23' E 017°33'713.6
2017-Sep-16 18:01N 36°23' E 017°41'713.4
2017-Sep-16 17:30N 36°23' E 017°49'713.2
2017-Sep-16 17:01N 36°23' E 017°58'713.2
2017-Sep-16 16:30N 36°23' E 018°06'612.9
2017-Sep-16 16:01N 36°23' E 018°14'713.1
2017-Sep-16 15:31N 36°23' E 018°22'612.9
2017-Sep-16 15:01N 36°23' E 018°30'713.0
2017-Sep-16 14:30N 36°22' E 018°38'713.1
2017-Sep-16 14:00N 36°22' E 018°46'613.4
2017-Sep-16 13:31N 36°22' E 018°54'713.3
2017-Sep-16 12:58N 36°22' E 019°03'1013.2
2017-Sep-16 12:12N 36°22' E 019°16'313.3
2017-Sep-16 11:58N 36°22' E 019°20'613.3
2017-Sep-16 11:30N 36°22' E 019°28'713.4
2017-Sep-16 11:00N 36°21' E 019°36'713.3
2017-Sep-16 10:30N 36°21' E 019°44'9113.1
2017-Sep-16 03:33N 36°21' E 021°37'2312.6
2017-Sep-16 01:42N 36°20' E 022°06'5113.1
2017-Sep-15 21:47N 36°24' E 023°09'312.6
2017-Sep-15 21:30N 36°25' E 023°13'1213.4
2017-Sep-15 20:35N 36°35' E 023°22'113.4
2017-Sep-15 20:30N 36°36' E 023°23'713.5
2017-Sep-15 20:00N 36°42' E 023°28'713.5
2017-Sep-15 19:31N 36°47' E 023°32'713.6
2017-Sep-15 19:00N 36°53' E 023°37'713.3
2017-Sep-15 18:30N 36°59' E 023°41'713.1
2017-Sep-15 18:01N 37°04' E 023°45'713.0
2017-Sep-15 17:30N 37°10' E 023°50'612.9
2017-Sep-15 17:00N 37°15' E 023°54'612.9
2017-Sep-15 16:30N 37°20' E 023°59'713.1
2017-Sep-15 16:01N 37°26' E 024°03'713.9
2017-Sep-15 15:29N 37°32' E 024°08'1213.3
2017-Sep-15 14:34N 37°42' E 024°17'112.7
2017-Sep-15 14:28N 37°43' E 024°18'3413.3
2017-Sep-15 11:55N 38°10' E 024°45'613.6
2017-Sep-15 11:29N 38°15' E 024°48'713.5
2017-Sep-15 10:56N 38°22' E 024°51'10212.9
2017-Sep-15 03:00N 39°54' E 025°50'10212.4
2017-Sep-14 18:47N 40°47' E 027°44'1013.0
2017-Sep-14 18:00N 40°49' E 027°57'5611.2
2017-Sep-14 13:02N 41°11' E 029°05'111.7
2017-Sep-14 12:55N 41°12' E 029°06'4 8.7
2017-Sep-14 12:30N 41°15' E 029°08'4 8.4
2017-Sep-14 12:01N 41°18' E 029°04'4 7.8
2017-Sep-14 11:31N 41°21' E 028°60'5 9.9
2017-Sep-14 11:00N 41°24' E 028°55'120 3.1
2017-Sep-12 20:13N 43°24' E 028°59'312.5
2017-Sep-12 19:59N 43°27' E 028°59'612.5
2017-Sep-12 19:30N 43°33' E 028°58'612.3
2017-Sep-12 19:01N 43°39' E 028°58'612.2
2017-Sep-12 18:31N 43°45' E 028°57'612.2
2017-Sep-12 18:01N 43°51' E 028°56'612.3
2017-Sep-12 17:30N 43°56' E 028°51'612.4
2017-Sep-12 17:00N 44°01' E 028°46'611.7
2017-Sep-12 16:30N 44°06' E 028°42'3 5.4
2017-Sep-12 16:00N 44°08' E 028°40'2 3.3
2017-Sep-12 15:30N 44°10' E 028°39'0 0.4
2017-Sep-12 15:00N 44°10' E 028°39'0 0.0
2017-Sep-12 14:30N 44°10' E 028°39'0 0.0
2017-Sep-12 14:00N 44°10' E 028°39'0 0.0
2017-Sep-12 13:30N 44°10' E 028°39'0 0.0
2017-Sep-12 13:00N 44°10' E 028°39'0 0.0
2017-Sep-12 12:30N 44°10' E 028°39'0 0.0
2017-Sep-12 12:00N 44°10' E 028°39'0 0.0
2017-Sep-12 11:30N 44°10' E 028°39'0 0.0
2017-Sep-12 11:00N 44°10' E 028°39'0 0.0
2017-Sep-12 10:27N 44°10' E 028°39'0 0.0
2017-Sep-12 10:00N 44°10' E 028°39'0 0.0
2017-Sep-12 09:30N 44°10' E 028°39'0 0.0
2017-Sep-12 08:57N 44°10' E 028°39'0 0.0
2017-Sep-12 08:30N 44°10' E 028°39'0 0.0
2017-Sep-12 08:00N 44°10' E 028°39'0 0.0
2017-Sep-12 07:30N 44°10' E 028°39'0 0.0
2017-Sep-12 07:00N 44°10' E 028°39'0 0.0
2017-Sep-12 06:30N 44°10' E 028°39'0 0.0
2017-Sep-12 06:00N 44°10' E 028°39'0 0.0
2017-Sep-12 05:30N 44°10' E 028°39'0 0.0
2017-Sep-12 04:57N 44°10' E 028°39'0 0.0
2017-Sep-12 04:30N 44°10' E 028°39'0 0.0
2017-Sep-12 04:00N 44°10' E 028°39'0 0.0
2017-Sep-12 03:30N 44°10' E 028°39'0 0.0
2017-Sep-12 02:54N 44°10' E 028°39'0 0.0
2017-Sep-12 02:30N 44°10' E 028°39'0 0.0
2017-Sep-12 02:00N 44°10' E 028°39'0 0.0
2017-Sep-12 01:30N 44°10' E 028°39'0 0.0
2017-Sep-12 01:00N 44°10' E 028°39'0 0.0
2017-Sep-12 00:30N 44°10' E 028°39'0 0.0
2017-Sep-12 00:00N 44°10' E 028°39'0 0.0
2017-Sep-11 23:30N 44°10' E 028°39'0 0.0
2017-Sep-11 23:00N 44°10' E 028°39'0 0.0
2017-Sep-11 22:30N 44°10' E 028°39'0 0.0
2017-Sep-11 22:00N 44°10' E 028°39'0 0.0
2017-Sep-11 21:30N 44°10' E 028°39'0 0.0
2017-Sep-11 21:00N 44°10' E 028°39'0 0.0
2017-Sep-11 20:30N 44°10' E 028°39'0 0.0
2017-Sep-11 19:57N 44°10' E 028°39'0 0.0
2017-Sep-11 19:30N 44°10' E 028°39'0 0.0
2017-Sep-11 19:00N 44°10' E 028°39'0 0.0
2017-Sep-11 18:27N 44°10' E 028°39'0 0.0
2017-Sep-11 17:57N 44°10' E 028°39'  
Track history (hours):
 
Tides and Currents Weather Stations Pressure Air Temp Water Temp Dewpoint Dewpoint Depression Visibility Wind Speed Wind Dir Waves Ship Positions

Loch Melfort

Last reported at 2017-Sep-21 17:45 UTC. Time now 2017-Sep-24 17:52 UTC.
Position N 34°11' W 007°56'.

Length 177 m; draft 7.8 m.

Type: Cargo ship. MMSI: 372924000.

Date/timePositionNaut miles runAvg speedWind from/ knotsBaromVisibWave heightAir tempDewpointWater temp
2017-Sep-21 17:45N 34°11' W 007°56'313.8
2017-Sep-21 17:30N 34°13' W 007°53'15312.0
2017-Sep-21 04:49N 35°58' W 005°37'411.7
2017-Sep-21 04:30N 35°59' W 005°33'611.5
2017-Sep-21 04:00N 36°01' W 005°26'510.8
2017-Sep-21 03:30N 36°05' W 005°23'3 6.0
2017-Sep-21 03:00N 36°08' W 005°22'0 0.1
2017-Sep-21 02:29N 36°08' W 005°22'0 0.1
2017-Sep-21 01:56N 36°08' W 005°22'0 0.0
2017-Sep-21 01:26N 36°08' W 005°22'0 0.2
2017-Sep-21 00:59N 36°08' W 005°22'0 0.1
2017-Sep-21 00:29N 36°08' W 005°22'0 0.1
2017-Sep-20 23:59N 36°08' W 005°22'0 0.2
2017-Sep-20 23:26N 36°08' W 005°22'0 0.2
2017-Sep-20 22:59N 36°08' W 005°22'0 0.1
2017-Sep-20 22:26N 36°08' W 005°22'0 0.2
2017-Sep-20 21:59N 36°08' W 005°22'0 0.4
2017-Sep-20 21:29N 36°08' W 005°22'0 0.1
2017-Sep-20 20:56N 36°08' W 005°22'0 0.0
2017-Sep-20 20:20N 36°08' W 005°22'0 0.0
2017-Sep-20 19:56N 36°08' W 005°22'0 0.0
2017-Sep-20 19:23N 36°08' W 005°22'0 0.0
2017-Sep-20 18:56N 36°08' W 005°22'0 0.1
2017-Sep-20 18:30N 36°08' W 005°22'3 4.1
2017-Sep-20 17:52N 36°06' W 005°22'3 9.4
2017-Sep-20 17:30N 36°05' W 005°18'4 8.1
2017-Sep-20 17:00N 36°04' W 005°13'2 2.1
2017-Sep-20 16:14N 36°05' W 005°11'0 0.7
2017-Sep-20 15:35N 36°05' W 005°11'0 0.6
2017-Sep-20 15:30N 36°05' W 005°11'0 0.6
2017-Sep-20 14:57N 36°06' W 005°11'1 0.6
2017-Sep-20 14:01N 36°06' W 005°12'0 0.6
2017-Sep-20 13:30N 36°06' W 005°12'0 0.2
2017-Sep-20 13:00N 36°07' W 005°12'0 0.4
2017-Sep-20 12:30N 36°07' W 005°11'0 0.6
2017-Sep-20 12:00N 36°06' W 005°11'  
2017-Sep-17 13:14N 36°60' E 012°34'311.3
2017-Sep-17 13:00N 36°59' E 012°37'1811.6
2017-Sep-17 11:27N 36°52' E 012°58'3612.9
2017-Sep-17 08:42N 36°41' E 013°40'413.0
2017-Sep-17 08:25N 36°39' E 013°44'613.0
2017-Sep-17 07:58N 36°38' E 013°51'613.2
2017-Sep-17 07:30N 36°36' E 013°59'613.1
2017-Sep-17 07:00N 36°34' E 014°06'713.1
2017-Sep-17 06:30N 36°31' E 014°14'713.1
2017-Sep-17 06:00N 36°29' E 014°22'613.1
2017-Sep-17 05:30N 36°27' E 014°29'713.1
2017-Sep-17 05:00N 36°25' E 014°37'613.0
2017-Sep-17 04:30N 36°25' E 014°45'613.1
2017-Sep-17 04:00N 36°25' E 014°53'713.2
2017-Sep-17 03:30N 36°25' E 015°02'612.8
2017-Sep-17 03:00N 36°25' E 015°10'713.0
2017-Sep-17 02:30N 36°25' E 015°18'713.7
2017-Sep-17 02:00N 36°24' E 015°26'713.8
2017-Sep-17 01:30N 36°25' E 015°35'713.7
2017-Sep-17 01:00N 36°25' E 015°43'714.1
2017-Sep-17 00:31N 36°24' E 015°52'713.7
2017-Sep-17 00:01N 36°24' E 016°00'713.5
2017-Sep-16 23:30N 36°24' E 016°09'713.5
2017-Sep-16 23:01N 36°24' E 016°17'713.5
2017-Sep-16 22:30N 36°24' E 016°26'713.5
2017-Sep-16 22:00N 36°24' E 016°34'713.3
2017-Sep-16 21:31N 36°24' E 016°42'813.3
2017-Sep-16 20:55N 36°23' E 016°52'513.3
2017-Sep-16 20:31N 36°24' E 016°59'713.5
2017-Sep-16 20:00N 36°23' E 017°07'713.7
2017-Sep-16 19:31N 36°23' E 017°16'713.7
2017-Sep-16 19:00N 36°23' E 017°24'713.7
2017-Sep-16 18:31N 36°23' E 017°33'713.6
2017-Sep-16 18:01N 36°23' E 017°41'713.4
2017-Sep-16 17:30N 36°23' E 017°49'713.2
2017-Sep-16 17:01N 36°23' E 017°58'713.2
2017-Sep-16 16:30N 36°23' E 018°06'612.9
2017-Sep-16 16:01N 36°23' E 018°14'713.1
2017-Sep-16 15:31N 36°23' E 018°22'612.9
2017-Sep-16 15:01N 36°23' E 018°30'713.0
2017-Sep-16 14:30N 36°22' E 018°38'713.1
2017-Sep-16 14:00N 36°22' E 018°46'613.4
2017-Sep-16 13:31N 36°22' E 018°54'713.3
2017-Sep-16 12:58N 36°22' E 019°03'1013.2
2017-Sep-16 12:12N 36°22' E 019°16'313.3
2017-Sep-16 11:58N 36°22' E 019°20'613.3
2017-Sep-16 11:30N 36°22' E 019°28'713.4
2017-Sep-16 11:00N 36°21' E 019°36'713.3
2017-Sep-16 10:30N 36°21' E 019°44'9113.1
2017-Sep-16 03:33N 36°21' E 021°37'2312.6
2017-Sep-16 01:42N 36°20' E 022°06'5113.1
2017-Sep-15 21:47N 36°24' E 023°09'312.6
2017-Sep-15 21:30N 36°25' E 023°13'1213.4
2017-Sep-15 20:35N 36°35' E 023°22'113.4
2017-Sep-15 20:30N 36°36' E 023°23'713.5
2017-Sep-15 20:00N 36°42' E 023°28'713.5
2017-Sep-15 19:31N 36°47' E 023°32'713.6
2017-Sep-15 19:00N 36°53' E 023°37'713.3
2017-Sep-15 18:30N 36°59' E 023°41'713.1
2017-Sep-15 18:01N 37°04' E 023°45'713.0
2017-Sep-15 17:30N 37°10' E 023°50'612.9
2017-Sep-15 17:00N 37°15' E 023°54'612.9
2017-Sep-15 16:30N 37°20' E 023°59'713.1
2017-Sep-15 16:01N 37°26' E 024°03'713.9
2017-Sep-15 15:29N 37°32' E 024°08'1213.3
2017-Sep-15 14:34N 37°42' E 024°17'112.7
2017-Sep-15 14:28N 37°43' E 024°18'3413.3
2017-Sep-15 11:55N 38°10' E 024°45'613.6
2017-Sep-15 11:29N 38°15' E 024°48'713.5
2017-Sep-15 10:56N 38°22' E 024°51'10212.9
2017-Sep-15 03:00N 39°54' E 025°50'10212.4
2017-Sep-14 18:47N 40°47' E 027°44'1013.0
2017-Sep-14 18:00N 40°49' E 027°57'5611.2
2017-Sep-14 13:02N 41°11' E 029°05'111.7
2017-Sep-14 12:55N 41°12' E 029°06'4 8.7
2017-Sep-14 12:30N 41°15' E 029°08'4 8.4
2017-Sep-14 12:01N 41°18' E 029°04'4 7.8
2017-Sep-14 11:31N 41°21' E 028°60'5 9.9
2017-Sep-14 11:00N 41°24' E 028°55'120 3.1
2017-Sep-12 20:13N 43°24' E 028°59'312.5
2017-Sep-12 19:59N 43°27' E 028°59'612.5
2017-Sep-12 19:30N 43°33' E 028°58'612.3
2017-Sep-12 19:01N 43°39' E 028°58'612.2
2017-Sep-12 18:31N 43°45' E 028°57'612.2
2017-Sep-12 18:01N 43°51' E 028°56'612.3
2017-Sep-12 17:30N 43°56' E 028°51'612.4
2017-Sep-12 17:00N 44°01' E 028°46'611.7
2017-Sep-12 16:30N 44°06' E 028°42'3 5.4
2017-Sep-12 16:00N 44°08' E 028°40'2 3.3
2017-Sep-12 15:30N 44°10' E 028°39'0 0.4
2017-Sep-12 15:00N 44°10' E 028°39'0 0.0
2017-Sep-12 14:30N 44°10' E 028°39'0 0.0
2017-Sep-12 14:00N 44°10' E 028°39'0 0.0
2017-Sep-12 13:30N 44°10' E 028°39'0 0.0
2017-Sep-12 13:00N 44°10' E 028°39'0 0.0
2017-Sep-12 12:30N 44°10' E 028°39'0 0.0
2017-Sep-12 12:00N 44°10' E 028°39'0 0.0
2017-Sep-12 11:30N 44°10' E 028°39'0 0.0
2017-Sep-12 11:00N 44°10' E 028°39'0 0.0
2017-Sep-12 10:27N 44°10' E 028°39'0 0.0
2017-Sep-12 10:00N 44°10' E 028°39'0 0.0
2017-Sep-12 09:30N 44°10' E 028°39'0 0.0
2017-Sep-12 08:57N 44°10' E 028°39'0 0.0
2017-Sep-12 08:30N 44°10' E 028°39'0 0.0
2017-Sep-12 08:00N 44°10' E 028°39'0 0.0
2017-Sep-12 07:30N 44°10' E 028°39'0 0.0
2017-Sep-12 07:00N 44°10' E 028°39'0 0.0
2017-Sep-12 06:30N 44°10' E 028°39'0 0.0
2017-Sep-12 06:00N 44°10' E 028°39'0 0.0
2017-Sep-12 05:30N 44°10' E 028°39'0 0.0
2017-Sep-12 04:57N 44°10' E 028°39'0 0.0
2017-Sep-12 04:30N 44°10' E 028°39'0 0.0
2017-Sep-12 04:00N 44°10' E 028°39'0 0.0
2017-Sep-12 03:30N 44°10' E 028°39'0 0.0
2017-Sep-12 02:54N 44°10' E 028°39'0 0.0
2017-Sep-12 02:30N 44°10' E 028°39'0 0.0
2017-Sep-12 02:00N 44°10' E 028°39'0 0.0
2017-Sep-12 01:30N 44°10' E 028°39'0 0.0
2017-Sep-12 01:00N 44°10' E 028°39'0 0.0
2017-Sep-12 00:30N 44°10' E 028°39'0 0.0
2017-Sep-12 00:00N 44°10' E 028°39'0 0.0
2017-Sep-11 23:30N 44°10' E 028°39'0 0.0
2017-Sep-11 23:00N 44°10' E 028°39'0 0.0
2017-Sep-11 22:30N 44°10' E 028°39'0 0.0
2017-Sep-11 22:00N 44°10' E 028°39'0 0.0
2017-Sep-11 21:30N 44°10' E 028°39'0 0.0
2017-Sep-11 21:00N 44°10' E 028°39'0 0.0
2017-Sep-11 20:30N 44°10' E 028°39'0 0.0
2017-Sep-11 19:57N 44°10' E 028°39'0 0.0
2017-Sep-11 19:30N 44°10' E 028°39'0 0.0
2017-Sep-11 19:00N 44°10' E 028°39'0 0.0
2017-Sep-11 18:27N 44°10' E 028°39'0 0.0
2017-Sep-11 17:57N 44°10' E 028°39'  

Dump ship's entire track history